Current Weather Conditions: station 62154

sailwx.info

Wind from 230 at 32 knots

Wave height 4.4 meters (14 feet), 7 second period

Air temperature 8.5° C
Dewpoint 5.9° C

Last reported at 2020-Feb-21 17:00 UTC.
Time now 2020-Feb-21 18:50 UTC

Location: N 56°24' E 002°12'.
View on Google Maps.

See reports from other nearby stations

  
Tides and Currents Weather Stations Pressure Air Temp Water Temp Dewpoint Dewpoint Depression Visibility Wind Speed Wind Dir Waves Ship Positions
date/time (UTC)wind fromknots sea level pressurealtimeterstation pressurevisibilityair tempwater tempwave heightnotes
2020-Feb-21 17:00 230 32 8.5 4.4
2020-Feb-21 16:00 230 29 8.3 5.6
2020-Feb-21 15:00 230 32 7.9 5.1
2020-Feb-21 14:00 230 31 7.8 4.9
2020-Feb-21 13:00 230 34 7.5 4.5
2020-Feb-21 12:00 230 33 7.2 4.7
2020-Feb-21 11:00 230 34 6.8 3.9
2020-Feb-21 10:00 230 34 6.7 4.3
2020-Feb-21 09:00 230 32 6.9 4.2
2020-Feb-21 08:00 230 28 7.2 4.1
2020-Feb-21 07:00 240 29 7.1 4.5
2020-Feb-21 06:00 250 26 6.9 3.8
2020-Feb-21 05:00 260 27 6.4 4.6
2020-Feb-21 04:00 270 25 6.2 4.5
2020-Feb-21 03:00 260 27 6.0 4.0
2020-Feb-21 02:00 270 27 6.0 4.2
2020-Feb-21 01:00 280 27 5.8 4.3
2020-Feb-21 00:00 280 28 5.7 4.3
2020-Feb-20 23:00 280 26 5.7 4.1
2020-Feb-20 22:00 280 28 5.5 4.1
2020-Feb-20 21:00 280 28 5.6 4.0
2020-Feb-20 20:00 280 27 5.3 3.4
2020-Feb-20 19:00 280 27 5.3 3.0
2020-Feb-20 18:00 280 25 5.5 2.7
2020-Feb-20 17:00 280 15 5.1 2.9
2020-Feb-20 16:00 310 19 4.0 2.9
2020-Feb-20 15:00 300 19 5.4 3.3
2020-Feb-20 14:00 4.8 3.1
2020-Feb-20 13:00 320 27 5.6 3.6
2020-Feb-20 12:00 220 28 7.8 3.4
2020-Feb-20 11:00 210 29 7.7 3.1
2020-Feb-20 10:00 210 31 7.7 3.0
2020-Feb-20 09:00 210 27 7.8 2.5
2020-Feb-20 08:00 220 26 7.7 2.2
2020-Feb-20 07:00 220 25 7.6 2.6
2020-Feb-20 06:00 220 24 7.6 2.8
2020-Feb-20 05:00 230 21 7.7 2.6
2020-Feb-20 04:00 220 20 7.6 2.8
2020-Feb-20 03:00 220 24 7.5 3.0
2020-Feb-20 02:00 220 24 7.4 2.9
2020-Feb-20 01:00 220 24 7.1 2.6
2020-Feb-20 00:00 210 25 7.0 2.6
2020-Feb-19 23:00 200 25 6.7 2.5
2020-Feb-19 22:00 200 26 6.4 2.3
2020-Feb-19 21:00 200 25 6.2 2.5
2020-Feb-19 20:00 200 24 6.1 2.6
2020-Feb-19 19:00 210 20 6.1 2.7
2020-Feb-19 18:00 220 15 6.1 2.7